»·PEaware :: N147AT KSAN-KCNO

N147AT :: KSAN-KCNO

FLIGHT INFORMATION

Flight Status: Arrived
Operator: Privately registered:
United States
More flights under this callsign
Pilot: Anonymous 18613 (18613)
Aircraft: CESSNA 172 SKYHAWK
(C172)
More flights by this aircraft type
Origin: KSAN San Diego Intl-Lindbergh
United States
Destination: KCNO Chino
United States
More flights between these airports :: More routes between these airports
Route: +OCN V23 DANAH V363 POXKU V8 PDZ
File this flight plan on PilotEdge
Remarks: SANP19
Altitude:
(Current/Filed)
5,000ft
Speed:
(Current/Filed)
120kts
Departed: 03-Oct-18 05:05 PM
Arrived: 03-Oct-18 06:06 PM
Distance/Time
Traveled:
78nm/1:00
Distance/Time
To Go:
Arrived

Flight Plot

Page will automatically refresh every two minutes.


Map Options




Map Legend


Flown Route
Filed Route
Departure Airport
Arrival Airport
Navaid (VOR, NDB)
Fix

Horizontal Profiles

Position Reports

Time Latitude Longitude Heading Altitude Ground
Speed
03-Oct-18 16:52 32.732420 -117.176641 194 21ft 0kts
03-Oct-18 16:53 32.732420 -117.176641 194 21ft 0kts
03-Oct-18 16:54 32.732420 -117.176641 194 21ft 0kts
03-Oct-18 16:55 32.732420 -117.176641 194 21ft 0kts
03-Oct-18 16:56 32.732420 -117.176641 194 21ft 0kts
03-Oct-18 16:57 32.732420 -117.176641 194 21ft 0kts
03-Oct-18 16:58 32.732420 -117.176641 194 21ft 0kts
03-Oct-18 16:59 32.732420 -117.176641 194 21ft 0kts
03-Oct-18 17:00 32.732420 -117.176641 194 21ft 0kts
03-Oct-18 17:01 32.732420 -117.176641 194 21ft 0kts
03-Oct-18 17:02 32.732420 -117.176641 194 21ft 0kts
03-Oct-18 17:03 32.732420 -117.176641 194 21ft 0kts
03-Oct-18 17:04 32.732379 -117.176651 188 21ft 3kts
03-Oct-18 17:05 32.730907 -117.175351 166 21ft 0kts
03-Oct-18 17:06 32.730905 -117.175351 167 21ft 0kts
03-Oct-18 17:07 32.730498 -117.177102 284 21ft 45kts
03-Oct-18 17:08 32.738883 -117.199369 320 590ft 82kts
03-Oct-18 17:09 32.756042 -117.214682 312 1260ft 81kts
03-Oct-18 17:10 32.773733 -117.231623 316 1921ft 83kts
03-Oct-18 17:11 32.795292 -117.243176 329 2569ft 85kts
03-Oct-18 17:12 32.817986 -117.253495 329 3191ft 88kts
03-Oct-18 17:13 32.842352 -117.259727 338 3802ft 91kts
03-Oct-18 17:14 32.868503 -117.268024 339 4308ft 101kts
03-Oct-18 17:15 32.895870 -117.277375 337 4805ft 104kts
03-Oct-18 17:16 32.923646 -117.286970 337 5304ft 104kts
03-Oct-18 17:17 32.950308 -117.298066 332 5801ft 98kts
03-Oct-18 17:18 32.977552 -117.310067 332 6002ft 118kts
03-Oct-18 17:19 33.009713 -117.325070 332 6010ft 127kts
03-Oct-18 17:20 33.042930 -117.340855 332 6014ft 129kts
03-Oct-18 17:21 33.077027 -117.355265 335 6019ft 130kts
03-Oct-18 17:22 33.110239 -117.369095 336 6019ft 130kts
03-Oct-18 17:23 33.144605 -117.383119 335 6008ft 130kts
03-Oct-18 17:24 33.178632 -117.397161 336 5997ft 129kts
03-Oct-18 17:25 33.213565 -117.408450 342 5986ft 130kts
03-Oct-18 17:26 33.246716 -117.422638 313 5980ft 124kts
03-Oct-18 17:27 33.270663 -117.451877 307 5972ft 122kts
03-Oct-18 17:28 33.294208 -117.481203 309 5963ft 122kts
03-Oct-18 17:29 33.319550 -117.508722 314 5953ft 123kts
03-Oct-18 17:30 33.345521 -117.535304 313 5944ft 122kts
03-Oct-18 17:31 33.368811 -117.560802 312 5935ft 122kts
03-Oct-18 17:32 33.393501 -117.588517 312 5926ft 121kts
03-Oct-18 17:33 33.418081 -117.616099 311 5916ft 121kts
03-Oct-18 17:34 33.442220 -117.643209 312 5997ft 118kts
03-Oct-18 17:35 33.466250 -117.670528 311 5998ft 123kts
03-Oct-18 17:36 33.492132 -117.697983 313 6000ft 125kts
03-Oct-18 17:37 33.524982 -117.711232 348 5996ft 133kts
03-Oct-18 17:38 33.562071 -117.714965 353 5997ft 134kts
03-Oct-18 17:39 33.599545 -117.717015 354 6000ft 135kts
03-Oct-18 17:40 33.636347 -117.723742 341 6006ft 134kts
03-Oct-18 17:41 33.672990 -117.732148 345 6010ft 134kts
03-Oct-18 17:42 33.707474 -117.746576 332 6016ft 131kts
03-Oct-18 17:43 33.741705 -117.761926 334 6022ft 131kts
03-Oct-18 17:44 33.775936 -117.777071 334 6028ft 131kts
03-Oct-18 17:45 33.812637 -117.782171 352 6031ft 134kts
03-Oct-18 17:46 33.845891 -117.771280 64 6023ft 135kts
03-Oct-18 17:47 33.860705 -117.730101 71 6030ft 135kts
03-Oct-18 17:48 33.872626 -117.687125 73 6038ft 135kts
03-Oct-18 17:49 33.884058 -117.643869 73 5987ft 141kts
03-Oct-18 17:50 33.895915 -117.597106 71 5397ft 148kts
03-Oct-18 17:51 33.909601 -117.550565 65 4806ft 147kts
03-Oct-18 17:52 33.928260 -117.508996 60 4418ft 132kts
03-Oct-18 17:53 33.941473 -117.470417 66 4415ft 120kts
03-Oct-18 17:54 33.952097 -117.432684 66 4417ft 118kts
03-Oct-18 17:55 33.963773 -117.395852 66 4419ft 117kts
03-Oct-18 17:56 33.975037 -117.359173 66 4422ft 118kts
03-Oct-18 17:57 33.986706 -117.321504 67 4420ft 124kts
03-Oct-18 17:58 34.007932 -117.318856 269 4418ft 105kts
03-Oct-18 17:59 33.985425 -117.338287 208 4414ft 104kts
03-Oct-18 18:00 33.972887 -117.366948 268 4143ft 117kts
03-Oct-18 18:01 33.976032 -117.408233 280 3541ft 128kts
03-Oct-18 18:02 33.977663 -117.451286 269 2969ft 127kts
03-Oct-18 18:03 33.976766 -117.490000 269 2958ft 109kts
03-Oct-18 18:04 33.976639 -117.528842 273 2552ft 120kts
03-Oct-18 18:05 33.976386 -117.568109 269 2066ft 94kts
03-Oct-18 18:06 33.976035 -117.597771 269 1598ft 90kts
03-Oct-18 18:07 33.975829 -117.626016 268 817ft 82kts
03-Oct-18 18:08 33.976537 -117.636707 3 653ft 0kts
03-Oct-18 18:09 33.976902 -117.638205 264 653ft 10kts
03-Oct-18 18:10 33.977617 -117.637365 89 653ft 9kts
03-Oct-18 18:11 33.977463 -117.636348 135 653ft 0kts

Navigation Log

Ident Type
1. KSAN Airport
2. OCN Navaid
3. KELPS Fix
4. DANAH Fix
5. ELB Navaid
6. JOGIT Fix
7. POXKU Fix
8. EBITE Fix
9. PDZ Navaid
10. KCNO Airport